Time;durP1;ratioP1;P1;durP2;ratioP2;P2;SDS_P1;SDS_P2;PMS_P1;PMS_P2;Temp;Humidity;BMP_temperature;BMP_pressure;BME280_temperature;BME280_humidity;BME280_pressure;Samples;Min_cycle;Max_cycle;Signal;HPM_P1;HPM_P2
2021/01/12 00:02:04;;;;;;;10.98;8.05;;;;;;;;;;5055837;28;20243;-86
2021/01/12 00:04:33;;;;;;;11.15;8.65;;;;;;;;;;5041501;28;20186;-86
2021/01/12 00:06:59;;;;;;;9.45;8.32;;;;;;;;;;5055521;28;20182;-86
2021/01/12 00:09:25;;;;;;;11.75;7.90;;;;;;;;;;5037037;28;20181;-85
2021/01/12 00:11:54;;;;;;;11.10;7.30;;;;;;;;;;5044606;28;20492;-88
2021/01/12 00:14:32;;;;;;;8.73;7.75;;;;;;;;;;5038515;28;20512;-90
2021/01/12 00:17:02;;;;;;;10.98;7.10;;;;;;;;;;5043494;28;20189;-88
2021/01/12 00:19:28;;;;;;;9.00;7.50;;;;;;;;;;5041408;28;20212;-86
2021/01/12 00:21:54;;;;;;;9.43;7.38;;;;;;;;;;5042572;28;20189;-87
2021/01/12 00:24:21;;;;;;;9.30;7.85;;;;;;;;;;5041541;28;20182;-88
2021/01/12 00:26:47;;;;;;;11.88;7.30;;;;;;;;;;5056587;28;20193;-86
2021/01/12 00:29:13;;;;;;;8.50;7.25;;;;;;;;;;5040234;28;20201;-88
2021/01/12 00:31:43;;;;;;;8.70;6.97;;;;;;;;;;5052262;28;20183;-88
2021/01/12 00:34:12;;;;;;;7.80;6.13;;;;;;;;;;5039910;28;20201;-89
2021/01/12 00:36:46;;;;;;;9.20;6.80;;;;;;;;;;5041063;28;20175;-87
2021/01/12 00:39:12;;;;;;;8.98;6.95;;;;;;;;;;5038493;28;20194;-86
2021/01/12 00:41:38;;;;;;;9.95;7.28;;;;;;;;;;5059795;28;20241;-85
2021/01/12 00:44:05;;;;;;;8.00;6.70;;;;;;;;;;5051602;28;20216;-85
2021/01/12 00:46:32;;;;;;;9.05;7.32;;;;;;;;;;5051873;28;20186;-85
2021/01/12 00:48:58;;;;;;;10.35;7.63;;;;;;;;;;5048344;28;20217;-86
2021/01/12 00:51:34;;;;;;;7.85;6.57;;;;;;;;;;5044998;28;20189;-87
2021/01/12 00:54:00;;;;;;;8.57;6.25;;;;;;;;;;5038716;28;20177;-85
2021/01/12 00:56:26;;;;;;;7.90;6.32;;;;;;;;;;5038898;28;20185;-86
2021/01/12 00:58:52;;;;;;;12.60;6.20;;;;;;;;;;5041472;28;20194;-84
2021/01/12 01:01:18;;;;;;;9.90;7.43;;;;;;;;;;5057053;28;20255;-83
2021/01/12 01:03:44;;;;;;;8.43;5.80;;;;;;;;;;5040007;28;20483;-85
2021/01/12 01:06:10;;;;;;;8.25;6.25;;;;;;;;;;5041765;28;20437;-86
2021/01/12 01:08:36;;;;;;;6.20;5.60;;;;;;;;;;5038588;28;20697;-86
2021/01/12 01:11:03;;;;;;;7.22;6.40;;;;;;;;;;5040198;28;20194;-88
2021/01/12 01:13:29;;;;;;;6.72;5.57;;;;;;;;;;5036644;28;20206;-83
2021/01/12 01:15:56;;;;;;;6.88;6.18;;;;;;;;;;5036153;28;20521;-84
2021/01/12 01:18:22;;;;;;;7.38;6.55;;;;;;;;;;5041629;28;20189;-83
2021/01/12 01:20:49;;;;;;;7.47;6.70;;;;;;;;;;5055862;28;20251;-83
2021/01/12 01:23:15;;;;;;;9.40;6.15;;;;;;;;;;5051321;28;20271;-84
2021/01/12 01:25:41;;;;;;;8.20;6.22;;;;;;;;;;5056261;28;20186;-85
2021/01/12 01:28:07;;;;;;;8.23;6.43;;;;;;;;;;5037454;28;20209;-86
2021/01/12 01:30:32;;;;;;;7.17;5.50;;;;;;;;;;5036546;28;20433;-87
2021/01/12 01:32:58;;;;;;;6.13;5.35;;;;;;;;;;5042252;28;20473;-85
2021/01/12 01:35:27;;;;;;;6.13;5.07;;;;;;;;;;5038569;28;20174;-86
2021/01/12 01:37:53;;;;;;;6.45;5.70;;;;;;;;;;5051103;28;21200;-85
2021/01/12 01:40:23;;;;;;;8.30;6.32;;;;;;;;;;5052995;28;20178;-84
2021/01/12 01:42:49;;;;;;;8.57;7.18;;;;;;;;;;5045324;28;20190;-85
2021/01/12 01:45:16;;;;;;;7.40;5.70;;;;;;;;;;5051248;28;20608;-85
2021/01/12 01:47:45;;;;;;;7.93;5.72;;;;;;;;;;5059233;28;20478;-84
2021/01/12 01:50:16;;;;;;;5.75;5.18;;;;;;;;;;5039022;28;20196;-85
2021/01/12 01:52:49;;;;;;;6.38;5.65;;;;;;;;;;5050634;28;20186;-85
2021/01/12 01:55:16;;;;;;;5.95;5.30;;;;;;;;;;5054798;28;20251;-87
2021/01/12 01:57:42;;;;;;;5.75;5.15;;;;;;;;;;5028088;28;20234;-85
2021/01/12 02:00:08;;;;;;;7.90;5.90;;;;;;;;;;5041258;28;20287;-85
2021/01/12 02:02:46;;;;;;;7.13;5.47;;;;;;;;;;5058013;28;20181;-84
2021/01/12 02:05:12;;;;;;;6.32;5.80;;;;;;;;;;5038467;28;20214;-83
2021/01/12 02:07:41;;;;;;;5.45;4.90;;;;;;;;;;5051802;28;20690;-86
2021/01/12 02:10:07;;;;;;;6.55;5.80;;;;;;;;;;5046704;28;20195;-84
2021/01/12 02:12:38;;;;;;;9.43;6.20;;;;;;;;;;5042506;28;20190;-85
2021/01/12 02:15:05;;;;;;;5.65;5.05;;;;;;;;;;5037470;28;20174;-86
2021/01/12 02:17:32;;;;;;;5.70;5.18;;;;;;;;;;5057127;28;20773;-86
2021/01/12 02:19:58;;;;;;;6.38;5.78;;;;;;;;;;5039184;28;20201;-86
2021/01/12 02:22:25;;;;;;;7.25;5.80;;;;;;;;;;5051552;28;20183;-84
2021/01/12 02:24:52;;;;;;;6.38;5.05;;;;;;;;;;5048560;28;20182;-83
2021/01/12 02:27:24;;;;;;;10.02;6.10;;;;;;;;;;5040415;28;20240;-87
2021/01/12 02:29:50;;;;;;;7.65;4.85;;;;;;;;;;5040207;28;20199;-82
2021/01/12 02:32:17;;;;;;;8.25;6.10;;;;;;;;;;5068403;28;20252;-86
2021/01/12 02:34:45;;;;;;;7.55;5.80;;;;;;;;;;5038269;28;20304;-83
2021/01/12 02:37:13;;;;;;;6.45;5.57;;;;;;;;;;5052862;28;20196;-84
2021/01/12 02:39:39;;;;;;;8.20;5.32;;;;;;;;;;5037345;28;20186;-84
2021/01/12 02:42:15;;;;;;;7.45;5.68;;;;;;;;;;5040891;28;20627;-83
2021/01/12 02:44:42;;;;;;;7.10;5.75;;;;;;;;;;5058515;28;20402;-85
2021/01/12 02:47:08;;;;;;;6.13;5.10;;;;;;;;;;5050140;28;20189;-85
2021/01/12 02:49:34;;;;;;;6.25;5.20;;;;;;;;;;5049121;28;20209;-85
2021/01/12 02:52:01;;;;;;;7.10;5.10;;;;;;;;;;5056114;28;20194;-89
2021/01/12 02:54:27;;;;;;;9.05;6.20;;;;;;;;;;5034437;28;20325;-84
2021/01/12 02:56:54;;;;;;;6.25;5.10;;;;;;;;;;5042018;28;20185;-83
2021/01/12 02:59:21;;;;;;;7.20;5.70;;;;;;;;;;5053104;28;20185;-87
2021/01/12 03:01:47;;;;;;;9.18;5.05;;;;;;;;;;5035518;28;20190;-85
2021/01/12 03:04:13;;;;;;;5.45;4.95;;;;;;;;;;5054614;28;20185;-84
2021/01/12 03:06:39;;;;;;;9.02;5.13;;;;;;;;;;5040517;28;20193;-84
2021/01/12 03:09:05;;;;;;;5.28;4.78;;;;;;;;;;5034630;28;20209;-84
2021/01/12 03:11:31;;;;;;;7.15;5.70;;;;;;;;;;5050891;28;20194;-84
2021/01/12 03:13:58;;;;;;;6.05;4.75;;;;;;;;;;5054830;28;20189;-85
2021/01/12 03:16:24;;;;;;;6.80;4.55;;;;;;;;;;5038002;28;20244;-83
2021/01/12 03:18:50;;;;;;;6.33;4.97;;;;;;;;;;5040288;28;20189;-83
2021/01/12 03:21:16;;;;;;;5.75;4.50;;;;;;;;;;5041020;28;20436;-84
2021/01/12 03:23:42;;;;;;;5.95;5.38;;;;;;;;;;5058189;28;20178;-84
2021/01/12 03:26:08;;;;;;;6.83;5.30;;;;;;;;;;5049166;28;20198;-85
2021/01/12 03:28:34;;;;;;;6.03;5.13;;;;;;;;;;5048501;28;20489;-85
2021/01/12 03:31:00;;;;;;;6.03;4.72;;;;;;;;;;5053944;28;20440;-83
2021/01/12 03:33:27;;;;;;;6.28;5.18;;;;;;;;;;5045019;28;20178;-85
2021/01/12 03:35:53;;;;;;;5.45;4.95;;;;;;;;;;5041211;28;20170;-85
2021/01/12 03:38:19;;;;;;;5.05;4.55;;;;;;;;;;5050351;28;20246;-87
2021/01/12 03:40:45;;;;;;;6.65;5.10;;;;;;;;;;5037705;28;20214;-88
2021/01/12 03:43:13;;;;;;;5.63;4.50;;;;;;;;;;5036087;28;20201;-86
2021/01/12 03:45:39;;;;;;;7.05;5.40;;;;;;;;;;5040792;28;20203;-86
2021/01/12 03:48:06;;;;;;;7.68;5.28;;;;;;;;;;5038680;28;20205;-87
2021/01/12 03:50:32;;;;;;;7.35;5.38;;;;;;;;;;5057535;28;20189;-88
2021/01/12 03:52:58;;;;;;;8.20;5.05;;;;;;;;;;5054915;28;20178;-89
2021/01/12 03:55:24;;;;;;;5.88;4.82;;;;;;;;;;5038916;28;20192;-88
2021/01/12 03:57:50;;;;;;;5.63;5.10;;;;;;;;;;5039598;28;20178;-87
2021/01/12 04:00:16;;;;;;;5.13;4.65;;;;;;;;;;5043744;28;20222;-85
2021/01/12 04:02:51;;;;;;;5.45;4.90;;;;;;;;;;5039027;28;20184;-87
2021/01/12 04:05:18;;;;;;;5.25;4.57;;;;;;;;;;5053007;28;20201;-88
2021/01/12 04:07:44;;;;;;;6.88;5.18;;;;;;;;;;5036419;28;20764;-85
2021/01/12 04:10:11;;;;;;;6.32;5.55;;;;;;;;;;5056609;28;20190;-88
2021/01/12 04:12:37;;;;;;;5.70;4.70;;;;;;;;;;5049928;28;20378;-89
2021/01/12 04:15:04;;;;;;;4.88;4.32;;;;;;;;;;5043958;28;20200;-86
2021/01/12 04:17:30;;;;;;;7.55;5.30;;;;;;;;;;5038813;28;20177;-88
2021/01/12 04:19:56;;;;;;;5.20;4.68;;;;;;;;;;5058553;28;20189;-86
2021/01/12 04:22:22;;;;;;;6.15;5.03;;;;;;;;;;5041429;28;20255;-87
2021/01/12 04:24:51;;;;;;;8.82;5.45;;;;;;;;;;5058048;28;20662;-88
2021/01/12 04:27:17;;;;;;;5.80;5.05;;;;;;;;;;5041573;28;20187;-88
2021/01/12 04:29:43;;;;;;;5.85;4.90;;;;;;;;;;5061595;28;20170;-87
2021/01/12 04:32:09;;;;;;;5.60;5.03;;;;;;;;;;5038684;28;20181;-87
2021/01/12 04:34:35;;;;;;;6.40;4.80;;;;;;;;;;5052879;28;20175;-87
2021/01/12 04:37:01;;;;;;;5.17;3.90;;;;;;;;;;5041047;28;20190;-89
2021/01/12 04:39:27;;;;;;;5.20;4.57;;;;;;;;;;5037418;28;20444;-89
2021/01/12 04:41:53;;;;;;;4.53;4.15;;;;;;;;;;5044707;28;20221;-88
2021/01/12 04:44:19;;;;;;;5.85;5.07;;;;;;;;;;5054627;28;20181;-87
2021/01/12 04:46:45;;;;;;;6.75;6.00;;;;;;;;;;5036688;28;20191;-89
2021/01/12 04:49:11;;;;;;;6.60;5.13;;;;;;;;;;5041389;28;20278;-88
2021/01/12 04:51:37;;;;;;;7.80;5.10;;;;;;;;;;5041946;28;20189;-86
2021/01/12 04:54:03;;;;;;;10.98;5.18;;;;;;;;;;5045897;28;20425;-86
2021/01/12 04:56:30;;;;;;;7.70;4.78;;;;;;;;;;5036613;28;20174;-87
2021/01/12 04:58:57;;;;;;;6.55;4.63;;;;;;;;;;5036336;28;20253;-88
2021/01/12 05:01:24;;;;;;;6.55;4.72;;;;;;;;;;5053638;28;20224;-86
2021/01/12 05:03:51;;;;;;;8.40;5.47;;;;;;;;;;5047351;28;20244;-89
2021/01/12 05:06:18;;;;;;;6.55;4.88;;;;;;;;;;5052400;28;20186;-89
2021/01/12 05:08:45;;;;;;;8.73;5.40;;;;;;;;;;5059138;28;20267;-92
2021/01/12 05:11:12;;;;;;;5.95;5.35;;;;;;;;;;5039755;28;20193;-89
2021/01/12 05:13:39;;;;;;;7.25;4.72;;;;;;;;;;5050136;28;20174;-86
2021/01/12 05:16:08;;;;;;;7.97;5.35;;;;;;;;;;5029472;28;20229;-87
2021/01/12 05:18:38;;;;;;;12.63;5.18;;;;;;;;;;5036953;28;20281;-85
2021/01/12 05:21:05;;;;;;;6.40;4.95;;;;;;;;;;5042755;28;20194;-87
2021/01/12 05:23:42;;;;;;;5.60;4.70;;;;;;;;;;5059146;28;20200;-87
2021/01/12 05:26:08;;;;;;;16.23;5.90;;;;;;;;;;5050333;28;20219;-87
2021/01/12 05:28:35;;;;;;;5.80;5.10;;;;;;;;;;5050991;28;20229;-85
2021/01/12 05:31:05;;;;;;;5.88;4.72;;;;;;;;;;5055733;28;20212;-84
2021/01/12 05:33:31;;;;;;;6.53;4.78;;;;;;;;;;5037771;28;20179;-85
2021/01/12 05:35:58;;;;;;;6.30;4.40;;;;;;;;;;5043323;28;20623;-87
2021/01/12 05:38:27;;;;;;;8.55;4.63;;;;;;;;;;5053473;28;20193;-86
2021/01/12 05:40:54;;;;;;;6.50;5.32;;;;;;;;;;5035549;28;20192;-85
2021/01/12 05:43:20;;;;;;;8.88;4.15;;;;;;;;;;5052513;28;20202;-86
2021/01/12 05:45:46;;;;;;;6.15;3.80;;;;;;;;;;5045686;28;20187;-86
2021/01/12 05:48:12;;;;;;;4.43;3.83;;;;;;;;;;5040286;28;20561;-88
2021/01/12 05:50:40;;;;;;;5.20;4.20;;;;;;;;;;5058802;28;20666;-85
2021/01/12 05:53:16;;;;;;;4.22;3.65;;;;;;;;;;5048018;28;20190;-86
2021/01/12 05:55:44;;;;;;;6.63;4.32;;;;;;;;;;5058554;28;20217;-85
2021/01/12 05:58:20;;;;;;;4.70;3.88;;;;;;;;;;5036803;28;20198;-84
2021/01/12 06:00:47;;;;;;;6.10;4.30;;;;;;;;;;5035694;28;20248;-87
2021/01/12 06:03:15;;;;;;;5.97;4.20;;;;;;;;;;5051096;28;20178;-86
2021/01/12 06:05:43;;;;;;;6.00;3.45;;;;;;;;;;5058940;28;20178;-86
2021/01/12 06:08:10;;;;;;;4.65;3.10;;;;;;;;;;5050138;28;20206;-87
2021/01/12 06:10:45;;;;;;;4.38;3.15;;;;;;;;;;5052807;28;20417;-87
2021/01/12 06:13:18;;;;;;;4.68;3.35;;;;;;;;;;5053557;28;20185;-86
2021/01/12 06:15:45;;;;;;;7.18;3.83;;;;;;;;;;5037338;28;20253;-87
2021/01/12 06:18:15;;;;;;;5.30;4.00;;;;;;;;;;5039041;28;20213;-87
2021/01/12 06:20:49;;;;;;;4.05;3.55;;;;;;;;;;5058097;28;20178;-87
2021/01/12 06:23:18;;;;;;;5.70;4.20;;;;;;;;;;5049842;28;20520;-89
2021/01/12 06:25:45;;;;;;;4.47;3.45;;;;;;;;;;5038972;28;20181;-86
2021/01/12 06:28:11;;;;;;;4.10;3.50;;;;;;;;;;5036765;28;20213;-85
2021/01/12 06:30:37;;;;;;;4.40;3.28;;;;;;;;;;5040964;28;20189;-86
2021/01/12 06:33:04;;;;;;;4.15;3.22;;;;;;;;;;5041014;28;20693;-86
2021/01/12 06:35:37;;;;;;;3.70;3.15;;;;;;;;;;5042076;28;20174;-86
2021/01/12 06:38:06;;;;;;;4.97;3.25;;;;;;;;;;5054665;28;20185;-87
2021/01/12 06:40:32;;;;;;;4.55;3.05;;;;;;;;;;5053892;28;20193;-85
2021/01/12 06:42:58;;;;;;;6.43;2.95;;;;;;;;;;5040334;28;20196;-86
2021/01/12 06:45:24;;;;;;;3.33;2.30;;;;;;;;;;5040819;28;20181;-86
2021/01/12 06:47:50;;;;;;;7.45;3.13;;;;;;;;;;5042140;28;20194;-88
2021/01/12 06:50:16;;;;;;;5.13;3.15;;;;;;;;;;5036702;28;20174;-85
2021/01/12 06:52:42;;;;;;;3.80;2.90;;;;;;;;;;5038995;28;20182;-86
2021/01/12 06:55:09;;;;;;;4.53;2.20;;;;;;;;;;5039311;28;20188;-84
2021/01/12 06:57:36;;;;;;;3.05;2.20;;;;;;;;;;5033552;28;20675;-84
2021/01/12 07:00:05;;;;;;;3.78;2.08;;;;;;;;;;5057508;28;20320;-87
2021/01/12 07:02:31;;;;;;;6.18;2.33;;;;;;;;;;5036871;28;20177;-86
2021/01/12 07:05:08;;;;;;;6.57;2.35;;;;;;;;;;5038378;28;20647;-87
2021/01/12 07:07:36;;;;;;;4.45;2.20;;;;;;;;;;5032565;28;20351;-85
2021/01/12 07:10:13;;;;;;;3.90;2.20;;;;;;;;;;5037785;28;20190;-86
2021/01/12 07:12:39;;;;;;;7.05;2.63;;;;;;;;;;5034565;28;20193;-84
2021/01/12 07:15:17;;;;;;;4.90;3.00;;;;;;;;;;5041532;28;20174;-85
2021/01/12 07:17:44;;;;;;;1.95;1.80;;;;;;;;;;5051938;28;20177;-85
2021/01/12 07:20:11;;;;;;;2.35;1.80;;;;;;;;;;5051361;28;20170;-88
2021/01/12 07:22:38;;;;;;;6.30;2.13;;;;;;;;;;5049697;28;20255;-86
2021/01/12 07:25:06;;;;;;;4.50;2.20;;;;;;;;;;5053895;28;20190;-85
2021/01/12 07:27:32;;;;;;;2.08;1.40;;;;;;;;;;5045060;28;20222;-85
2021/01/12 07:29:59;;;;;;;3.28;2.25;;;;;;;;;;5036297;28;20182;-85
2021/01/12 07:32:33;;;;;;;2.63;2.10;;;;;;;;;;5057993;28;20178;-85
2021/01/12 07:35:06;;;;;;;2.88;1.60;;;;;;;;;;5053691;28;20174;-86
2021/01/12 07:37:34;;;;;;;7.03;2.22;;;;;;;;;;5041500;28;20196;-87
2021/01/12 07:40:00;;;;;;;2.22;1.50;;;;;;;;;;5063867;28;20200;-88
2021/01/12 07:42:26;;;;;;;3.22;1.42;;;;;;;;;;5037197;28;20195;-85
2021/01/12 07:44:52;;;;;;;4.22;1.90;;;;;;;;;;5045250;28;20178;-83
2021/01/12 07:47:18;;;;;;;3.17;1.70;;;;;;;;;;5040405;28;20268;-83
2021/01/12 07:49:47;;;;;;;4.35;2.00;;;;;;;;;;5040701;28;20186;-83
2021/01/12 07:52:13;;;;;;;2.75;1.52;;;;;;;;;;5044260;28;20213;-85
2021/01/12 07:54:41;;;;;;;3.78;1.98;;;;;;;;;;5043869;28;20181;-85
2021/01/12 07:57:08;;;;;;;3.22;1.50;;;;;;;;;;5037737;28;20177;-87
2021/01/12 07:59:40;;;;;;;2.90;1.88;;;;;;;;;;5059498;28;20244;-86
2021/01/12 08:02:06;;;;;;;2.10;1.70;;;;;;;;;;5041566;28;20682;-85
2021/01/12 08:04:33;;;;;;;2.60;1.45;;;;;;;;;;5053378;28;20233;-83
2021/01/12 08:06:59;;;;;;;5.25;1.95;;;;;;;;;;5040325;28;20249;-85
2021/01/12 08:09:25;;;;;;;2.88;1.42;;;;;;;;;;5046930;28;20229;-83
2021/01/12 08:11:53;;;;;;;5.07;1.65;;;;;;;;;;5045479;28;20190;-83
2021/01/12 08:14:23;;;;;;;1.95;1.83;;;;;;;;;;5052466;28;20194;-84
2021/01/12 08:16:53;;;;;;;1.90;1.33;;;;;;;;;;5038706;28;20178;-85
2021/01/12 08:19:29;;;;;;;1.77;1.10;;;;;;;;;;5039075;28;20185;-87
2021/01/12 08:21:55;;;;;;;3.10;1.70;;;;;;;;;;5041970;28;20181;-86
2021/01/12 08:24:22;;;;;;;1.65;1.42;;;;;;;;;;5056624;28;20262;-85
2021/01/12 08:26:48;;;;;;;4.30;1.48;;;;;;;;;;5047509;28;20277;-86
2021/01/12 08:29:15;;;;;;;1.92;1.30;;;;;;;;;;5035744;28;20224;-85
2021/01/12 08:31:53;;;;;;;2.30;1.30;;;;;;;;;;5043914;28;20182;-87
2021/01/12 08:34:21;;;;;;;4.18;1.70;;;;;;;;;;5041061;28;20197;-84
2021/01/12 08:36:48;;;;;;;1.95;1.45;;;;;;;;;;5042799;28;20228;-86
2021/01/12 08:39:14;;;;;;;2.08;1.30;;;;;;;;;;5033492;28;20283;-85
2021/01/12 08:41:45;;;;;;;2.50;1.50;;;;;;;;;;5045682;28;20182;-84
2021/01/12 08:44:12;;;;;;;1.88;1.23;;;;;;;;;;5059749;28;20185;-85
2021/01/12 08:46:39;;;;;;;2.40;1.20;;;;;;;;;;5057599;28;20178;-84
2021/01/12 08:49:05;;;;;;;2.08;1.52;;;;;;;;;;5042057;28;20201;-84
2021/01/12 08:51:32;;;;;;;3.65;1.85;;;;;;;;;;5059554;28;20197;-85
2021/01/12 08:53:59;;;;;;;4.15;1.40;;;;;;;;;;5043582;28;20181;-83
2021/01/12 08:56:25;;;;;;;2.35;1.00;;;;;;;;;;5045171;28;20229;-86
2021/01/12 08:59:01;;;;;;;2.03;1.35;;;;;;;;;;5038355;28;20204;-85
2021/01/12 09:01:28;;;;;;;3.35;1.50;;;;;;;;;;5039988;28;20221;-82
2021/01/12 09:04:04;;;;;;;2.83;1.50;;;;;;;;;;5039437;28;20201;-83
2021/01/12 09:06:30;;;;;;;1.30;1.20;;;;;;;;;;5040426;28;20192;-85
2021/01/12 09:09:05;;;;;;;3.53;1.45;;;;;;;;;;5042722;28;20198;-83
2021/01/12 09:11:31;;;;;;;3.60;1.23;;;;;;;;;;5043335;28;20185;-84
2021/01/12 09:14:04;;;;;;;1.92;1.25;;;;;;;;;;5041412;28;20196;-85
2021/01/12 09:16:30;;;;;;;4.07;1.35;;;;;;;;;;5037966;28;20577;-82
2021/01/12 09:18:56;;;;;;;3.67;1.92;;;;;;;;;;5042084;28;20189;-87
2021/01/12 09:21:25;;;;;;;2.30;1.10;;;;;;;;;;5043870;28;20651;-84
2021/01/12 09:23:51;;;;;;;2.75;1.30;;;;;;;;;;5055210;28;20513;-83
2021/01/12 09:26:20;;;;;;;1.55;1.10;;;;;;;;;;5050946;28;20197;-83
2021/01/12 09:28:49;;;;;;;2.15;1.35;;;;;;;;;;5039418;28;20764;-85
2021/01/12 09:31:20;;;;;;;1.55;1.38;;;;;;;;;;5056142;28;20268;-86
2021/01/12 09:33:50;;;;;;;4.20;2.38;;;;;;;;;;5039966;28;20177;-84
2021/01/12 09:36:17;;;;;;;3.78;1.33;;;;;;;;;;5030183;28;20206;-84
2021/01/12 09:38:46;;;;;;;3.25;1.27;;;;;;;;;;5043500;28;20237;-84
2021/01/12 09:41:13;;;;;;;4.55;1.40;;;;;;;;;;5055525;28;20215;-88
2021/01/12 09:43:41;;;;;;;2.60;1.20;;;;;;;;;;5039315;28;20212;-87
2021/01/12 09:46:07;;;;;;;2.72;1.67;;;;;;;;;;5041073;28;20186;-85
2021/01/12 09:48:33;;;;;;;3.25;1.52;;;;;;;;;;5042891;28;20213;-86
2021/01/12 09:50:59;;;;;;;1.85;1.65;;;;;;;;;;5045059;28;20205;-86
2021/01/12 09:53:25;;;;;;;1.55;1.45;;;;;;;;;;5044224;28;20170;-88
2021/01/12 09:55:51;;;;;;;4.57;1.75;;;;;;;;;;5041441;28;20249;-90
2021/01/12 09:58:17;;;;;;;4.60;1.77;;;;;;;;;;5038913;28;20785;-89
2021/01/12 10:00:43;;;;;;;2.03;1.63;;;;;;;;;;5041389;28;20719;-87
2021/01/12 10:03:10;;;;;;;6.28;1.58;;;;;;;;;;5040220;28;20962;-86
2021/01/12 10:05:40;;;;;;;1.38;1.27;;;;;;;;;;5058766;28;20201;-89
2021/01/12 10:08:06;;;;;;;3.28;1.50;;;;;;;;;;5038975;28;20220;-86
2021/01/12 10:10:32;;;;;;;4.10;1.60;;;;;;;;;;5052202;28;20190;-88
2021/01/12 10:12:58;;;;;;;5.22;2.20;;;;;;;;;;5038402;28;20558;-88
2021/01/12 10:15:27;;;;;;;4.95;1.75;;;;;;;;;;5043514;28;20193;-86
2021/01/12 10:17:53;;;;;;;4.40;2.00;;;;;;;;;;5041578;28;20165;-86
2021/01/12 10:20:19;;;;;;;3.28;1.60;;;;;;;;;;5043881;28;20233;-90
2021/01/12 10:22:45;;;;;;;1.83;1.73;;;;;;;;;;5053861;28;20672;-88
2021/01/12 10:25:12;;;;;;;4.80;1.77;;;;;;;;;;5055568;28;20200;-85
2021/01/12 10:27:38;;;;;;;2.30;1.70;;;;;;;;;;5041634;28;20186;-90
2021/01/12 10:30:14;;;;;;;2.63;1.20;;;;;;;;;;5040987;28;20174;-85
2021/01/12 10:32:43;;;;;;;2.72;1.42;;;;;;;;;;5058468;28;20169;-88
2021/01/12 10:35:09;;;;;;;1.92;1.70;;;;;;;;;;5055470;28;20173;-88
2021/01/12 10:37:36;;;;;;;9.07;1.73;;;;;;;;;;5054180;28;20278;-87
2021/01/12 10:40:02;;;;;;;1.83;1.52;;;;;;;;;;5039113;28;20189;-84
2021/01/12 10:42:28;;;;;;;2.22;1.50;;;;;;;;;;5042983;28;20197;-88
2021/01/12 10:44:54;;;;;;;2.50;1.33;;;;;;;;;;5041220;28;20182;-87
2021/01/12 10:47:20;;;;;;;2.60;1.60;;;;;;;;;;5042960;28;20421;-85
2021/01/12 10:49:46;;;;;;;4.93;1.92;;;;;;;;;;5037966;28;20616;-84
2021/01/12 10:52:12;;;;;;;3.63;1.30;;;;;;;;;;5039147;28;20186;-87
2021/01/12 10:54:39;;;;;;;1.88;1.40;;;;;;;;;;5047412;28;20182;-85
2021/01/12 10:57:08;;;;;;;2.65;1.48;;;;;;;;;;5040891;28;20200;-87
2021/01/12 10:59:34;;;;;;;2.38;1.20;;;;;;;;;;5056384;28;20666;-85
2021/01/12 11:02:03;;;;;;;1.88;1.40;;;;;;;;;;5039350;28;20219;-85
2021/01/12 11:04:30;;;;;;;6.15;1.42;;;;;;;;;;5040036;28;20182;-87
2021/01/12 11:06:57;;;;;;;2.45;1.58;;;;;;;;;;5035010;28;20182;-84
2021/01/12 11:09:24;;;;;;;1.40;1.10;;;;;;;;;;5043455;28;20209;-88
2021/01/12 11:11:50;;;;;;;5.65;1.40;;;;;;;;;;5058883;28;20166;-84
2021/01/12 11:14:18;;;;;;;2.40;1.50;;;;;;;;;;5057699;28;20188;-86
2021/01/12 11:16:45;;;;;;;3.35;1.75;;;;;;;;;;5042365;28;20188;-88
2021/01/12 11:19:11;;;;;;;3.72;1.63;;;;;;;;;;5041843;28;20200;-85
2021/01/12 11:21:45;;;;;;;2.30;1.55;;;;;;;;;;5045186;28;20178;-85
2021/01/12 11:24:15;;;;;;;1.45;1.27;;;;;;;;;;5043483;28;20188;-87
2021/01/12 11:26:41;;;;;;;1.90;1.30;;;;;;;;;;5046260;28;20177;-89
2021/01/12 11:29:07;;;;;;;1.98;1.20;;;;;;;;;;5043508;28;20249;-89
2021/01/12 11:31:33;;;;;;;2.65;1.30;;;;;;;;;;5041513;28;20193;-89
2021/01/12 11:34:00;;;;;;;2.92;1.35;;;;;;;;;;5041465;28;20189;-87
2021/01/12 11:36:32;;;;;;;2.33;1.35;;;;;;;;;;5042836;28;20178;-88
2021/01/12 11:38:58;;;;;;;1.10;0.98;;;;;;;;;;5043618;28;20192;-88
2021/01/12 11:41:23;;;;;;;1.60;1.07;;;;;;;;;;5060821;28;20182;-85
2021/01/12 11:43:49;;;;;;;1.80;1.33;;;;;;;;;;5042973;28;20455;-87
2021/01/12 11:46:15;;;;;;;3.65;1.20;;;;;;;;;;5060526;28;20516;-87
2021/01/12 11:48:41;;;;;;;3.60;1.00;;;;;;;;;;5044292;28;20377;-88
2021/01/12 11:51:07;;;;;;;1.40;1.05;;;;;;;;;;5044045;28;20177;-89
2021/01/12 11:53:34;;;;;;;3.10;1.50;;;;;;;;;;5061292;28;20162;-88
2021/01/12 11:56:00;;;;;;;1.20;1.10;;;;;;;;;;5059696;28;20186;-89
2021/01/12 11:58:26;;;;;;;2.28;1.10;;;;;;;;;;5053661;28;20197;-88
2021/01/12 12:00:52;;;;;;;1.38;1.20;;;;;;;;;;5039411;28;20226;-88
2021/01/12 12:03:18;;;;;;;1.67;1.20;;;;;;;;;;5041470;28;20209;-88
2021/01/12 12:05:46;;;;;;;1.90;1.30;;;;;;;;;;5060410;28;20182;-89
2021/01/12 12:08:12;;;;;;;2.08;1.63;;;;;;;;;;5047548;28;20212;-89
2021/01/12 12:10:38;;;;;;;15.90;2.10;;;;;;;;;;5040266;28;20563;-87
2021/01/12 12:13:04;;;;;;;4.25;1.30;;;;;;;;;;5055866;28;20444;-88
2021/01/12 12:15:30;;;;;;;1.50;1.35;;;;;;;;;;5043689;28;20209;-89
2021/01/12 12:17:55;;;;;;;2.30;1.50;;;;;;;;;;5043246;28;20190;-88
2021/01/12 12:20:22;;;;;;;1.25;1.15;;;;;;;;;;5058844;28;20185;-87
2021/01/12 12:22:48;;;;;;;2.55;1.00;;;;;;;;;;5055956;28;20644;-88
2021/01/12 12:25:14;;;;;;;2.90;1.45;;;;;;;;;;5056349;28;20259;-88
2021/01/12 12:27:40;;;;;;;1.52;1.25;;;;;;;;;;5036866;28;20702;-89
2021/01/12 12:30:06;;;;;;;3.78;1.42;;;;;;;;;;5041899;28;20177;-87
2021/01/12 12:32:32;;;;;;;1.73;1.23;;;;;;;;;;5041546;28;20189;-89
2021/01/12 12:34:58;;;;;;;1.13;1.00;;;;;;;;;;5038164;28;20185;-86
2021/01/12 12:37:25;;;;;;;1.30;1.20;;;;;;;;;;5040405;28;20185;-89
2021/01/12 12:39:51;;;;;;;1.25;1.10;;;;;;;;;;5039028;28;20190;-87
2021/01/12 12:42:16;;;;;;;2.87;1.40;;;;;;;;;;5039255;28;20261;-86
2021/01/12 12:44:44;;;;;;;1.40;1.30;;;;;;;;;;5043435;28;20922;-86
2021/01/12 12:47:11;;;;;;;1.85;1.30;;;;;;;;;;5039776;28;20272;-87
2021/01/12 12:49:37;;;;;;;1.92;1.23;;;;;;;;;;5037162;28;20209;-87
2021/01/12 12:52:05;;;;;;;1.48;1.23;;;;;;;;;;5035821;28;20726;-89
2021/01/12 12:54:31;;;;;;;1.13;1.00;;;;;;;;;;5049602;28;20182;-87
2021/01/12 12:56:59;;;;;;;1.20;1.10;;;;;;;;;;5043042;28;20174;-86
2021/01/12 12:59:25;;;;;;;2.15;1.15;;;;;;;;;;4843291;28;5734998;-88
2021/01/12 13:01:52;;;;;;;1.48;1.20;;;;;;;;;;5040358;28;20178;-89
2021/01/12 13:04:18;;;;;;;1.90;1.10;;;;;;;;;;5056712;28;20178;-87
2021/01/12 13:06:51;;;;;;;2.33;1.58;;;;;;;;;;5042690;28;20186;-87
2021/01/12 13:09:17;;;;;;;1.60;1.00;;;;;;;;;;5042693;28;20203;-88
2021/01/12 13:11:47;;;;;;;1.88;1.20;;;;;;;;;;5058940;28;20174;-88
2021/01/12 13:14:14;;;;;;;1.50;0.98;;;;;;;;;;5042307;28;20181;-87
2021/01/12 13:16:41;;;;;;;2.75;1.30;;;;;;;;;;5054155;28;20210;-89
2021/01/12 13:19:11;;;;;;;3.00;1.55;;;;;;;;;;5056276;28;20193;-87
2021/01/12 13:21:37;;;;;;;4.22;1.52;;;;;;;;;;5042465;28;20196;-88
2021/01/12 13:24:03;;;;;;;3.25;1.25;;;;;;;;;;5042141;28;20196;-88
2021/01/12 13:26:31;;;;;;;2.28;1.10;;;;;;;;;;5044143;28;20186;-90
2021/01/12 13:28:57;;;;;;;2.60;1.40;;;;;;;;;;5039566;28;20227;-88
2021/01/12 13:31:23;;;;;;;2.03;1.40;;;;;;;;;;5052403;28;20214;-88
2021/01/12 13:33:49;;;;;;;1.08;1.00;;;;;;;;;;5039105;28;20428;-86
2021/01/12 13:36:15;;;;;;;1.25;1.15;;;;;;;;;;5040822;28;26389;-85
2021/01/12 13:38:41;;;;;;;1.30;1.20;;;;;;;;;;5058722;28;20182;-89
2021/01/12 13:41:07;;;;;;;3.78;1.77;;;;;;;;;;5055772;28;20424;-91
2021/01/12 13:43:33;;;;;;;3.38;1.20;;;;;;;;;;5052750;28;20186;-88
2021/01/12 13:46:00;;;;;;;2.25;1.00;;;;;;;;;;5036990;28;20201;-87
2021/01/12 13:48:26;;;;;;;1.10;1.00;;;;;;;;;;5059418;28;20201;-87
2021/01/12 13:50:53;;;;;;;1.30;1.10;;;;;;;;;;5042734;28;20181;-89
2021/01/12 13:53:22;;;;;;;1.50;1.17;;;;;;;;;;5038214;28;20190;-89
2021/01/12 13:55:48;;;;;;;1.42;1.20;;;;;;;;;;5037799;28;20182;-90
2021/01/12 13:58:18;;;;;;;3.72;1.63;;;;;;;;;;5056318;28;20198;-90
2021/01/12 14:00:44;;;;;;;1.63;1.50;;;;;;;;;;5041138;28;20233;-86
2021/01/12 14:03:10;;;;;;;3.08;1.75;;;;;;;;;;5053721;28;20494;-88
2021/01/12 14:05:36;;;;;;;2.78;1.50;;;;;;;;;;5041238;28;20206;-90
2021/01/12 14:08:02;;;;;;;1.80;0.90;;;;;;;;;;5039934;28;20210;-88
2021/01/12 14:10:28;;;;;;;1.83;1.08;;;;;;;;;;5034418;28;20229;-89
2021/01/12 14:12:54;;;;;;;0.80;0.80;;;;;;;;;;5040687;28;20197;-91
2021/01/12 14:15:21;;;;;;;1.05;0.95;;;;;;;;;;5041709;28;20647;-88
2021/01/12 14:17:57;;;;;;;2.20;1.33;;;;;;;;;;5044078;28;20177;-88
2021/01/12 14:20:24;;;;;;;1.27;1.13;;;;;;;;;;5056696;28;20173;-88
2021/01/12 14:22:51;;;;;;;1.45;1.17;;;;;;;;;;5039021;28;20212;-89
2021/01/12 14:25:18;;;;;;;2.05;1.73;;;;;;;;;;5032495;28;20441;-89
2021/01/12 14:27:44;;;;;;;2.38;1.30;;;;;;;;;;5038834;28;20194;-88
2021/01/12 14:30:11;;;;;;;2.05;1.85;;;;;;;;;;5040368;28;20170;-87
2021/01/12 14:32:37;;;;;;;1.55;1.30;;;;;;;;;;5057297;28;20180;-89
2021/01/12 14:35:04;;;;;;;1.13;0.90;;;;;;;;;;5037422;28;20173;-90
2021/01/12 14:37:35;;;;;;;1.27;1.10;;;;;;;;;;5056617;28;20269;-91
2021/01/12 14:40:05;;;;;;;0.90;0.82;;;;;;;;;;5038970;28;20189;-89
2021/01/12 14:42:32;;;;;;;1.02;0.90;;;;;;;;;;5038463;28;20205;-90
2021/01/12 14:44:58;;;;;;;1.92;1.10;;;;;;;;;;5041440;28;20227;-89